Time;durP1;ratioP1;P1;durP2;ratioP2;P2;SDS_P1;SDS_P2;PMS_P1;PMS_P2;Temp;Humidity;BMP_temperature;BMP_pressure;BME280_temperature;BME280_humidity;BME280_pressure;Samples;Min_cycle;Max_cycle;Signal;HPM_P1;HPM_P2
2022/11/26 00:00:48;;;;;;;27.70;9.20;;;5.90;99.90;;;;;;5029084;28;20065;-65
2022/11/26 00:03:15;;;;;;;23.20;8.95;;;5.90;99.90;;;;;;5028432;28;20159;-67
2022/11/26 00:05:43;;;;;;;25.13;9.77;;;5.90;99.90;;;;;;5027820;28;20029;-66
2022/11/26 00:08:25;;;;;;;24.10;9.93;;;5.90;99.90;;;;;;5028488;28;20424;-66
2022/11/26 00:10:52;;;;;;;27.38;9.82;;;5.90;99.90;;;;;;5028626;28;20505;-70
2022/11/26 00:13:23;;;;;;;25.90;9.63;;;5.90;99.90;;;;;;5028917;28;20057;-66
2022/11/26 00:15:49;;;;;;;24.90;9.10;;;5.80;99.90;;;;;;5028930;28;20029;-66
2022/11/26 00:18:16;;;;;;;24.83;9.40;;;5.80;99.90;;;;;;5028503;28;20029;-66
2022/11/26 00:20:43;;;;;;;23.17;9.52;;;5.80;99.90;;;;;;5028761;28;20052;-67
2022/11/26 00:23:22;;;;;;;27.40;10.52;;;5.80;99.90;;;;;;5028184;28;20033;-64
2022/11/26 00:26:10;;;;;;;34.28;9.07;;;5.70;99.90;;;;;;5028706;28;20025;-66
2022/11/26 00:28:37;;;;;;;23.55;8.45;;;5.80;99.90;;;;;;5028923;28;20029;-65
2022/11/26 00:31:13;;;;;;;23.80;9.43;;;5.80;99.90;;;;;;5028021;28;20036;-66
2022/11/26 00:33:38;;;;;;;22.30;9.55;;;5.80;99.90;;;;;;5028116;28;20045;-66
2022/11/26 00:36:16;;;;;;;27.80;9.88;;;5.80;99.90;;;;;;5027751;28;20405;-64
2022/11/26 00:38:42;;;;;;;31.80;10.23;;;5.80;99.90;;;;;;5028766;28;20033;-67
2022/11/26 00:41:15;;;;;;;26.75;9.88;;;5.80;99.90;;;;;;5027906;28;20049;-65
2022/11/26 00:43:41;;;;;;;23.00;9.57;;;5.80;99.90;;;;;;5028737;28;20034;-66
2022/11/26 00:46:14;;;;;;;28.90;9.77;;;5.80;99.90;;;;;;5027767;28;20036;-68
2022/11/26 00:48:39;;;;;;;26.00;9.77;;;5.80;99.90;;;;;;5029014;28;20028;-64
2022/11/26 00:51:05;;;;;;;24.90;9.93;;;5.70;99.90;;;;;;5027660;28;20029;-66
2022/11/26 00:53:31;;;;;;;25.70;10.00;;;5.70;99.90;;;;;;5028335;28;20059;-66
2022/11/26 00:55:57;;;;;;;30.08;10.38;;;5.70;99.90;;;;;;5027853;28;20056;-69
2022/11/26 00:58:28;;;;;;;19.85;9.55;;;5.70;99.90;;;;;;5028319;28;20025;-67
2022/11/26 01:00:56;;;;;;;24.25;9.45;;;5.70;99.90;;;;;;5028247;28;20551;-70
2022/11/26 01:03:22;;;;;;;23.55;9.48;;;5.70;99.90;;;;;;5028366;28;20073;-67
2022/11/26 01:05:53;;;;;;;24.92;9.45;;;5.80;99.90;;;;;;5028522;28;20142;-67
2022/11/26 01:08:32;;;;;;;23.45;9.43;;;5.80;99.90;;;;;;5032006;28;20030;-66
2022/11/26 01:10:59;;;;;;;25.48;9.20;;;5.80;99.90;;;;;;5030259;28;20664;-67
2022/11/26 01:13:25;;;;;;;21.95;9.13;;;5.80;99.90;;;;;;5032014;28;20054;-65
2022/11/26 01:15:52;;;;;;;26.95;10.20;;;5.70;99.90;;;;;;5032544;28;20115;-66
2022/11/26 01:18:20;;;;;;;26.13;10.00;;;5.80;99.90;;;;;;5031105;28;20152;-64
2022/11/26 01:20:46;;;;;;;26.17;8.95;;;5.70;99.90;;;;;;5031921;28;20725;-66
2022/11/26 01:23:14;;;;;;;27.83;9.55;;;5.70;99.90;;;;;;5031464;28;20103;-66
2022/11/26 01:25:41;;;;;;;26.05;9.35;;;5.70;99.90;;;;;;5030740;28;20034;-66
2022/11/26 01:28:12;;;;;;;21.17;9.15;;;5.70;99.90;;;;;;5031355;28;20111;-65
2022/11/26 01:30:38;;;;;;;24.20;9.35;;;5.70;99.90;;;;;;5031989;28;20064;-65
2022/11/26 01:33:04;;;;;;;26.45;9.05;;;5.70;99.90;;;;;;5029847;28;20371;-64
2022/11/26 01:35:30;;;;;;;27.23;8.75;;;5.70;99.90;;;;;;5031893;28;20036;-66
2022/11/26 01:37:56;;;;;;;19.60;8.52;;;5.70;99.90;;;;;;5031623;28;20025;-70
2022/11/26 01:40:24;;;;;;;24.52;8.98;;;5.80;99.90;;;;;;5031759;28;20417;-67
2022/11/26 01:42:55;;;;;;;26.65;8.93;;;5.80;99.90;;;;;;5031485;28;20037;-64
2022/11/26 01:45:23;;;;;;;23.10;9.25;;;5.80;99.90;;;;;;5031102;28;20049;-66
2022/11/26 01:47:48;;;;;;;19.80;8.38;;;5.80;99.90;;;;;;5031475;28;20033;-66
2022/11/26 01:50:30;;;;;;;26.10;9.13;;;5.90;99.90;;;;;;5029482;28;20044;-66
2022/11/26 01:53:29;;;;;;;22.30;8.50;;;5.90;99.90;;;;;;5031687;28;20017;-66
2022/11/26 01:56:00;;;;;;;30.73;7.90;;;5.90;99.90;;;;;;5019002;28;20034;-66
2022/11/26 01:58:36;;;;;;;26.17;8.38;;;5.90;99.90;;;;;;5031721;28;20033;-66
2022/11/26 02:01:01;;;;;;;19.55;8.05;;;5.90;99.90;;;;;;5030889;28;20541;-68
2022/11/26 02:03:31;;;;;;;21.20;8.55;;;6.00;99.90;;;;;;5031236;28;20037;-66
2022/11/26 02:06:02;;;;;;;26.23;8.23;;;6.00;99.90;;;;;;5031026;28;20371;-71
2022/11/26 02:08:30;;;;;;;22.88;8.32;;;6.00;99.90;;;;;;5031170;28;20427;-66
2022/11/26 02:10:55;;;;;;;21.42;8.35;;;6.00;99.90;;;;;;5031245;28;20072;-64
2022/11/26 02:13:22;;;;;;;30.50;8.50;;;6.00;99.90;;;;;;5030162;28;20081;-65
2022/11/26 02:16:10;;;;;;;22.77;8.60;;;6.00;99.90;;;;;;5031541;28;20030;-67
2022/11/26 02:18:43;;;;;;;24.05;8.20;;;6.00;99.90;;;;;;5029774;28;20037;-67
2022/11/26 02:21:17;;;;;;;18.67;7.43;;;6.10;99.90;;;;;;5030195;28;20068;-67
2022/11/26 02:24:17;;;;;;;24.08;8.20;;;6.10;99.90;;;;;;5031255;28;20040;-68
2022/11/26 02:27:07;;;;;;;21.23;8.03;;;6.00;99.90;;;;;;5031154;28;20029;-67
2022/11/26 02:29:48;;;;;;;26.63;8.60;;;6.00;99.90;;;;;;5030857;28;20032;-66
2022/11/26 02:32:19;;;;;;;25.35;8.65;;;5.90;99.90;;;;;;5030237;28;20071;-65
2022/11/26 02:34:59;;;;;;;23.48;8.35;;;5.90;99.90;;;;;;5030894;28;20030;-66
2022/11/26 02:37:36;;;;;;;21.73;8.90;;;5.90;99.90;;;;;;5030956;28;20471;-68
2022/11/26 02:40:02;;;;;;;25.75;9.55;;;5.80;99.90;;;;;;5030278;28;20034;-71
2022/11/26 02:42:31;;;;;;;23.60;9.13;;;5.80;99.90;;;;;;5030421;28;20581;-68
2022/11/26 02:45:04;;;;;;;29.10;9.00;;;5.80;99.90;;;;;;5030376;28;20115;-68
2022/11/26 02:47:32;;;;;;;25.63;9.32;;;5.80;99.90;;;;;;5030999;28;20060;-66
2022/11/26 02:50:01;;;;;;;23.52;8.65;;;5.80;99.90;;;;;;5030807;28;20071;-66
2022/11/26 02:52:28;;;;;;;27.50;8.98;;;5.80;99.90;;;;;;5030125;28;20034;-67
2022/11/26 02:54:55;;;;;;;23.20;8.85;;;5.80;99.90;;;;;;5030485;28;20030;-66
2022/11/26 02:57:25;;;;;;;24.70;9.10;;;5.80;99.90;;;;;;5029636;28;20147;-66
2022/11/26 02:59:50;;;;;;;23.33;9.05;;;5.70;99.90;;;;;;5030431;28;20075;-66
2022/11/26 03:02:25;;;;;;;23.88;8.93;;;5.70;99.90;;;;;;5029908;28;20530;-66
2022/11/26 03:04:55;;;;;;;22.23;8.60;;;5.60;99.90;;;;;;5030496;28;20155;-66
2022/11/26 03:07:22;;;;;;;24.13;8.65;;;5.60;99.90;;;;;;5029466;28;20025;-66
2022/11/26 03:09:54;;;;;;;27.38;8.85;;;5.60;99.90;;;;;;5029813;28;20115;-66
2022/11/26 03:12:21;;;;;;;21.95;9.15;;;5.60;99.90;;;;;;5028776;28;20049;-65
2022/11/26 03:14:47;;;;;;;25.42;9.73;;;5.60;99.90;;;;;;5030191;28;20060;-66
2022/11/26 03:17:13;;;;;;;26.02;9.45;;;5.70;99.90;;;;;;5029328;28;20646;-67
2022/11/26 03:19:39;;;;;;;23.67;9.20;;;5.70;99.90;;;;;;5030091;28;20029;-67
2022/11/26 03:22:04;;;;;;;26.13;9.30;;;5.70;99.90;;;;;;5029455;28;20048;-71
2022/11/26 03:24:31;;;;;;;28.58;9.07;;;5.80;99.90;;;;;;5029949;28;20509;-65
2022/11/26 03:26:57;;;;;;;25.75;8.60;;;5.80;99.90;;;;;;5030193;28;20482;-68
2022/11/26 03:29:23;;;;;;;19.48;8.82;;;5.80;99.90;;;;;;5028889;28;20026;-65
2022/11/26 03:31:48;;;;;;;24.98;8.93;;;5.80;99.90;;;;;;5029643;28;20030;-65
2022/11/26 03:34:14;;;;;;;25.20;8.85;;;5.80;99.90;;;;;;5027173;28;20033;-66
2022/11/26 03:36:40;;;;;;;25.92;8.30;;;5.80;99.90;;;;;;5029888;28;20053;-66
2022/11/26 03:39:05;;;;;;;25.08;8.40;;;5.80;99.90;;;;;;5029149;28;20026;-70
2022/11/26 03:41:31;;;;;;;21.63;8.25;;;5.80;99.90;;;;;;5029277;28;20045;-68
2022/11/26 03:43:57;;;;;;;30.73;8.50;;;5.80;99.90;;;;;;5029477;28;20037;-67
2022/11/26 03:46:23;;;;;;;29.98;8.18;;;5.80;99.90;;;;;;5028689;28;20032;-64
2022/11/26 03:48:48;;;;;;;21.38;8.38;;;5.80;99.90;;;;;;5029606;28;20052;-66
2022/11/26 03:51:14;;;;;;;28.40;9.10;;;5.80;99.90;;;;;;5028706;28;20524;-67
2022/11/26 03:53:40;;;;;;;19.23;7.38;;;5.90;99.90;;;;;;5029724;28;20079;-66
2022/11/26 03:56:06;;;;;;;22.00;7.70;;;5.80;99.90;;;;;;5029199;28;20076;-70
2022/11/26 03:58:32;;;;;;;29.20;8.25;;;5.80;99.90;;;;;;5029270;28;20021;-66
2022/11/26 04:00:58;;;;;;;29.92;8.38;;;5.80;99.90;;;;;;5028892;28;20049;-66
2022/11/26 04:03:23;;;;;;;24.92;7.38;;;5.80;99.90;;;;;;5028117;28;20577;-66
2022/11/26 04:05:49;;;;;;;22.83;8.05;;;5.80;99.90;;;;;;5029211;28;20034;-65
2022/11/26 04:08:15;;;;;;;26.45;8.60;;;5.90;99.90;;;;;;5028218;28;20025;-66
2022/11/26 04:10:40;;;;;;;20.08;8.02;;;5.80;99.90;;;;;;5029237;28;20057;-64
2022/11/26 04:13:06;;;;;;;31.90;9.13;;;5.80;99.90;;;;;;5028135;28;20046;-72
2022/11/26 04:15:31;;;;;;;26.55;8.52;;;5.80;99.90;;;;;;5028550;28;20033;-65
2022/11/26 04:17:57;;;;;;;21.40;8.88;;;5.80;99.90;;;;;;5044218;28;20425;-64
2022/11/26 04:20:23;;;;;;;22.40;8.32;;;5.80;99.90;;;;;;5028039;28;20693;-64
2022/11/26 04:22:48;;;;;;;30.88;9.27;;;5.80;99.90;;;;;;5029229;28;20088;-67
2022/11/26 04:25:14;;;;;;;21.10;9.00;;;5.80;99.90;;;;;;5027125;28;20064;-67
2022/11/26 04:27:39;;;;;;;25.40;8.68;;;5.80;99.90;;;;;;5028907;28;20033;-66
2022/11/26 04:30:07;;;;;;;26.42;9.43;;;5.80;99.90;;;;;;5028679;28;20036;-72
2022/11/26 04:32:32;;;;;;;28.67;9.68;;;5.80;99.90;;;;;;5027993;28;20033;-67
2022/11/26 04:34:58;;;;;;;29.83;9.93;;;5.80;99.90;;;;;;5028618;28;20394;-66
2022/11/26 04:37:24;;;;;;;26.85;10.05;;;5.80;99.90;;;;;;5027860;28;20041;-68
2022/11/26 04:39:49;;;;;;;24.48;9.48;;;5.80;99.90;;;;;;5029030;28;20164;-66
2022/11/26 04:42:15;;;;;;;26.67;9.30;;;5.70;99.90;;;;;;5026936;28;20112;-66
2022/11/26 04:44:40;;;;;;;23.67;9.38;;;5.80;99.90;;;;;;5028782;28;20081;-66
2022/11/26 04:47:06;;;;;;;25.35;10.02;;;5.70;99.90;;;;;;5028309;28;20784;-71
2022/11/26 04:49:32;;;;;;;28.20;9.30;;;5.80;99.90;;;;;;5026714;28;20446;-68
2022/11/26 04:51:57;;;;;;;26.90;9.98;;;5.70;99.90;;;;;;5028690;28;20394;-67
2022/11/26 04:54:23;;;;;;;27.15;10.35;;;5.80;99.90;;;;;;5027609;28;20111;-66
2022/11/26 04:56:48;;;;;;;24.55;9.85;;;5.70;99.90;;;;;;5028677;28;20104;-66
2022/11/26 04:59:14;;;;;;;21.60;10.13;;;5.70;99.90;;;;;;5027674;28;20026;-66
2022/11/26 05:01:40;;;;;;;26.00;9.82;;;5.70;99.90;;;;;;5028421;28;20037;-66
2022/11/26 05:04:05;;;;;;;28.70;9.35;;;5.70;99.90;;;;;;5026455;28;20041;-66
2022/11/26 05:06:31;;;;;;;25.13;9.88;;;5.60;99.90;;;;;;5027271;28;20033;-66
2022/11/26 05:08:57;;;;;;;26.13;10.15;;;5.60;99.90;;;;;;5028327;28;20029;-66
2022/11/26 05:11:22;;;;;;;32.03;10.10;;;5.60;99.90;;;;;;5027020;28;20071;-67
2022/11/26 05:13:48;;;;;;;27.63;10.10;;;5.60;99.90;;;;;;5028467;28;20130;-66
2022/11/26 05:16:13;;;;;;;34.47;10.93;;;5.70;99.90;;;;;;5027342;28;20467;-67
2022/11/26 05:18:39;;;;;;;23.90;9.98;;;5.70;99.90;;;;;;5028202;28;20040;-66
2022/11/26 05:21:05;;;;;;;28.98;10.38;;;5.70;99.90;;;;;;5028294;28;20040;-66
2022/11/26 05:23:31;;;;;;;24.10;9.88;;;5.70;99.90;;;;;;5027655;28;20064;-67
2022/11/26 05:25:56;;;;;;;33.50;9.75;;;5.70;99.90;;;;;;5028255;28;20053;-66
2022/11/26 05:28:22;;;;;;;30.98;10.52;;;5.70;99.90;;;;;;5027322;28;20056;-67
2022/11/26 05:30:48;;;;;;;26.88;10.57;;;5.70;99.90;;;;;;5028301;28;20034;-66
2022/11/26 05:33:13;;;;;;;26.65;9.32;;;5.70;99.90;;;;;;5027321;28;20466;-68
2022/11/26 05:35:39;;;;;;;26.45;9.80;;;5.80;99.90;;;;;;5026882;28;20120;-66
2022/11/26 05:38:05;;;;;;;26.52;10.15;;;5.80;99.90;;;;;;5026779;28;20118;-66
2022/11/26 05:40:30;;;;;;;33.35;10.40;;;5.80;99.90;;;;;;5027427;28;20037;-66
2022/11/26 05:42:56;;;;;;;32.78;9.63;;;5.80;99.90;;;;;;5027684;28;20670;-67
2022/11/26 05:45:21;;;;;;;36.65;10.50;;;5.80;99.90;;;;;;5027139;28;20038;-67
2022/11/26 05:47:47;;;;;;;38.20;10.85;;;5.80;99.90;;;;;;5027814;28;20029;-65
2022/11/26 05:50:13;;;;;;;38.22;10.82;;;5.80;99.90;;;;;;5027161;28;20724;-70
2022/11/26 05:52:39;;;;;;;26.38;10.70;;;5.80;99.90;;;;;;5029344;28;20029;-66
2022/11/26 05:55:05;;;;;;;31.48;10.52;;;5.80;99.90;;;;;;5031144;28;20021;-66
2022/11/26 05:57:31;;;;;;;27.98;10.55;;;5.90;99.90;;;;;;5030853;28;20033;-67
2022/11/26 05:59:56;;;;;;;30.48;10.15;;;5.90;99.90;;;;;;5031188;28;20043;-67
2022/11/26 06:02:22;;;;;;;36.60;10.80;;;5.90;99.90;;;;;;5030795;28;20032;-67
2022/11/26 06:04:48;;;;;;;29.38;10.75;;;5.90;99.90;;;;;;5031487;28;20033;-66
2022/11/26 06:07:13;;;;;;;38.08;11.05;;;5.90;99.90;;;;;;5031300;28;20057;-68
2022/11/26 06:09:39;;;;;;;28.30;11.32;;;5.90;99.90;;;;;;5030879;28;20462;-66
2022/11/26 06:12:05;;;;;;;38.75;11.40;;;5.90;99.90;;;;;;5031197;28;20049;-66
2022/11/26 06:14:30;;;;;;;31.25;12.63;;;5.90;99.90;;;;;;5029174;28;20041;-65
2022/11/26 06:16:56;;;;;;;37.97;12.68;;;5.90;99.90;;;;;;5030993;28;20576;-67
2022/11/26 06:19:22;;;;;;;38.70;12.80;;;5.90;99.90;;;;;;5030586;28;20033;-67
2022/11/26 06:21:47;;;;;;;39.10;13.23;;;5.90;99.90;;;;;;5030869;28;20032;-65
2022/11/26 06:24:13;;;;;;;39.65;12.13;;;5.90;99.90;;;;;;5029446;28;20055;-69
2022/11/26 06:26:39;;;;;;;45.00;12.95;;;5.90;99.90;;;;;;5030529;28;20036;-66
2022/11/26 06:29:04;;;;;;;47.90;13.35;;;5.90;99.90;;;;;;5031118;28;20079;-67
2022/11/26 06:31:31;;;;;;;45.42;15.10;;;5.90;99.90;;;;;;5030250;28;20467;-65
2022/11/26 06:33:57;;;;;;;39.05;13.73;;;5.90;99.90;;;;;;5030963;28;20474;-67
2022/11/26 06:36:23;;;;;;;44.28;14.88;;;5.90;99.90;;;;;;5029893;28;20029;-66
2022/11/26 06:38:49;;;;;;;39.17;13.98;;;5.90;99.90;;;;;;5030863;28;20119;-67
2022/11/26 06:41:15;;;;;;;42.47;13.95;;;5.90;99.90;;;;;;5030110;28;20132;-71
2022/11/26 06:43:41;;;;;;;54.92;14.55;;;6.00;99.90;;;;;;5030257;28;20041;-66
2022/11/26 06:46:08;;;;;;;35.97;13.95;;;5.90;99.90;;;;;;5030778;28;20033;-66
2022/11/26 06:48:35;;;;;;;41.65;14.27;;;6.00;99.90;;;;;;5029876;28;20490;-66
2022/11/26 06:51:05;;;;;;;38.75;14.13;;;6.00;99.90;;;;;;5030437;28;20033;-67
2022/11/26 06:53:31;;;;;;;36.30;13.10;;;6.00;99.90;;;;;;5029678;28;20033;-65
2022/11/26 06:56:01;;;;;;;32.97;12.70;;;6.10;99.90;;;;;;5030524;28;20026;-66
2022/11/26 06:58:26;;;;;;;34.07;11.97;;;6.00;99.90;;;;;;5029755;28;20106;-67
2022/11/26 07:00:52;;;;;;;40.20;13.43;;;6.00;99.90;;;;;;5030395;28;20037;-65
2022/11/26 07:03:18;;;;;;;36.97;12.95;;;6.00;99.90;;;;;;5029797;28;20108;-72
2022/11/26 07:05:44;;;;;;;34.05;12.18;;;6.10;99.90;;;;;;5029390;28;20423;-66
2022/11/26 07:08:09;;;;;;;37.53;13.70;;;6.00;99.90;;;;;;5030275;28;20025;-66
2022/11/26 07:10:35;;;;;;;40.92;14.25;;;6.00;99.90;;;;;;5029354;28;20029;-65
2022/11/26 07:13:00;;;;;;;38.30;13.63;;;6.00;99.90;;;;;;5029677;28;20045;-65
2022/11/26 07:15:26;;;;;;;50.38;13.30;;;6.00;99.90;;;;;;5029445;28;20091;-65
2022/11/26 07:17:52;;;;;;;43.88;14.02;;;6.00;99.90;;;;;;5030198;28;20083;-66
2022/11/26 07:20:17;;;;;;;36.00;14.20;;;6.00;99.90;;;;;;5029683;28;20034;-70
2022/11/26 07:22:43;;;;;;;38.25;14.60;;;6.00;99.90;;;;;;5030050;28;20064;-68
2022/11/26 07:25:09;;;;;;;43.40;12.88;;;6.00;99.90;;;;;;5030294;28;20037;-66
2022/11/26 07:27:34;;;;;;;40.45;13.60;;;6.00;99.90;;;;;;5029356;28;20036;-64
2022/11/26 07:30:00;;;;;;;36.00;13.60;;;6.00;99.90;;;;;;5029972;28;20037;-65
2022/11/26 07:32:28;;;;;;;32.40;12.65;;;6.00;99.90;;;;;;5029354;28;20033;-67
2022/11/26 07:34:53;;;;;;;38.85;13.15;;;6.10;99.90;;;;;;5029222;28;20115;-66
2022/11/26 07:37:19;;;;;;;39.60;12.65;;;6.10;99.90;;;;;;5028396;28;20457;-70
2022/11/26 07:39:45;;;;;;;32.60;13.05;;;6.10;99.90;;;;;;5029284;28;20440;-66
2022/11/26 07:42:12;;;;;;;45.10;14.43;;;6.10;99.90;;;;;;5029474;28;20159;-65
2022/11/26 07:44:38;;;;;;;41.65;14.88;;;6.10;99.90;;;;;;5028961;28;20103;-66
2022/11/26 07:47:04;;;;;;;38.42;13.68;;;6.10;99.90;;;;;;5029652;28;20060;-65
2022/11/26 07:49:29;;;;;;;40.30;13.27;;;6.10;99.90;;;;;;5029179;28;20355;-64
2022/11/26 07:51:55;;;;;;;43.50;14.57;;;6.10;99.90;;;;;;5029146;28;20030;-66
2022/11/26 07:54:21;;;;;;;36.40;13.70;;;6.20;99.90;;;;;;5028688;28;20025;-72
2022/11/26 07:56:46;;;;;;;53.40;15.05;;;6.20;99.90;;;;;;5029403;28;20033;-64
2022/11/26 07:59:12;;;;;;;39.67;13.35;;;6.10;99.90;;;;;;5029435;28;20075;-66
2022/11/26 08:01:37;;;;;;;37.03;13.80;;;6.10;99.90;;;;;;5028119;28;20103;-65
2022/11/26 08:04:04;;;;;;;47.95;14.52;;;6.20;99.90;;;;;;5029376;28;20037;-67
2022/11/26 08:06:31;;;;;;;50.55;14.20;;;6.20;99.90;;;;;;5027645;28;20038;-67
2022/11/26 08:09:01;;;;;;;38.38;14.07;;;6.20;99.90;;;;;;5028902;28;20040;-65
2022/11/26 08:11:29;;;;;;;37.65;10.15;;;6.20;99.90;;;;;;5028058;28;20083;-68
2022/11/26 08:13:57;;;;;;;43.40;13.60;;;6.20;99.90;;;;;;5029128;28;20025;-66
2022/11/26 08:16:23;;;;;;;48.38;14.57;;;6.20;99.90;;;;;;5027596;28;20021;-70
2022/11/26 08:18:53;;;;;;;45.50;14.68;;;6.20;99.90;;;;;;5028964;28;20041;-66
2022/11/26 08:21:19;;;;;;;45.65;15.07;;;6.20;99.90;;;;;;5029412;28;20064;-70
2022/11/26 08:23:45;;;;;;;41.40;15.30;;;6.30;99.90;;;;;;5026609;28;20034;-64
2022/11/26 08:26:13;;;;;;;37.60;14.45;;;6.30;99.90;;;;;;5029137;28;20324;-66
2022/11/26 08:28:40;;;;;;;46.47;14.77;;;6.30;99.90;;;;;;5027970;28;20102;-66
2022/11/26 08:31:08;;;;;;;44.92;14.43;;;6.40;99.90;;;;;;5028876;28;20033;-66
2022/11/26 08:33:33;;;;;;;42.70;14.70;;;6.30;99.90;;;;;;5027792;28;20025;-68
2022/11/26 08:35:59;;;;;;;48.65;15.38;;;6.40;99.90;;;;;;5028147;28;20183;-64
2022/11/26 08:38:27;;;;;;;47.08;15.60;;;6.40;99.90;;;;;;5028052;28;20445;-65
2022/11/26 08:40:53;;;;;;;46.45;14.35;;;6.40;99.90;;;;;;5028608;28;20033;-67
2022/11/26 08:43:20;;;;;;;41.83;14.60;;;6.40;99.90;;;;;;5028834;28;20038;-66
2022/11/26 08:45:57;;;;;;;42.85;14.63;;;6.50;99.90;;;;;;5026780;28;20029;-66
2022/11/26 08:48:23;;;;;;;45.25;14.77;;;6.50;99.90;;;;;;5028158;28;20029;-70
2022/11/26 08:50:49;;;;;;;49.63;14.82;;;6.40;99.90;;;;;;5028396;28;20100;-66
2022/11/26 08:53:16;;;;;;;44.22;15.18;;;6.50;99.90;;;;;;5028579;28;20510;-66
2022/11/26 08:55:41;;;;;;;49.28;14.10;;;6.50;99.90;;;;;;5027671;28;20038;-67
2022/11/26 08:58:07;;;;;;;42.63;14.98;;;6.50;99.90;;;;;;5028633;28;20030;-66
2022/11/26 09:00:33;;;;;;;41.13;14.82;;;6.50;99.90;;;;;;5027653;28;20041;-69
2022/11/26 09:02:59;;;;;;;37.92;14.48;;;6.50;99.90;;;;;;5028575;28;20112;-66
2022/11/26 09:05:25;;;;;;;46.63;14.75;;;6.50;99.90;;;;;;5028096;28;20041;-71
2022/11/26 09:07:50;;;;;;;36.47;14.25;;;6.50;99.90;;;;;;5028652;28;20036;-65
2022/11/26 09:10:16;;;;;;;37.85;14.23;;;6.50;99.90;;;;;;5027081;28;20033;-66
2022/11/26 09:12:42;;;;;;;47.63;15.43;;;6.50;99.90;;;;;;5027489;28;20184;-66
2022/11/26 09:15:08;;;;;;;46.60;15.13;;;6.50;99.90;;;;;;5028257;28;20482;-67
2022/11/26 09:17:34;;;;;;;42.70;14.77;;;6.50;99.90;;;;;;5027725;28;20112;-67
2022/11/26 09:19:59;;;;;;;47.15;13.98;;;6.50;99.90;;;;;;5028178;28;20566;-65
2022/11/26 09:22:25;;;;;;;41.70;14.60;;;6.50;99.90;;;;;;5027799;28;20107;-71
2022/11/26 09:24:51;;;;;;;44.45;15.13;;;6.50;99.90;;;;;;5027989;28;20052;-67
2022/11/26 09:27:16;;;;;;;46.60;13.65;;;6.50;99.90;;;;;;5029246;28;20489;-67
2022/11/26 09:29:42;;;;;;;40.92;13.90;;;6.50;99.90;;;;;;5031490;28;20836;-65
2022/11/26 09:32:08;;;;;;;37.47;13.77;;;6.50;99.90;;;;;;5031993;28;20099;-66
2022/11/26 09:34:34;;;;;;;33.88;12.35;;;6.50;99.90;;;;;;5031376;28;20570;-67
2022/11/26 09:37:00;;;;;;;41.47;13.32;;;6.60;99.90;;;;;;5032114;28;20072;-65
2022/11/26 09:39:27;;;;;;;41.45;13.50;;;6.60;99.90;;;;;;5031798;28;20576;-70
2022/11/26 09:42:36;;;;;;;39.72;12.80;;;6.60;99.90;;;;;;5031494;28;20041;-72
2022/11/26 09:45:21;;;;;;;50.45;15.05;;;6.70;99.90;;;;;;5031808;28;20044;-66
2022/11/26 09:47:50;;;;;;;34.70;13.48;;;6.60;99.90;;;;;;5010839;28;20042;-67
2022/11/26 09:50:32;;;;;;;36.72;13.48;;;6.60;99.90;;;;;;5011874;28;20052;-66
2022/11/26 09:53:24;;;;;;;36.75;13.10;;;6.70;99.90;;;;;;5011998;28;20021;-66
2022/11/26 09:55:53;;;;;;;34.95;12.73;;;6.70;99.90;;;;;;5011318;28;20180;-66
2022/11/26 09:58:45;;;;;;;37.75;13.60;;;6.80;99.90;;;;;;5011975;28;20038;-65
2022/11/26 10:01:20;;;;;;;36.13;13.77;;;6.80;99.90;;;;;;5011827;28;20030;-64
2022/11/26 10:03:46;;;;;;;45.60;13.70;;;6.90;99.90;;;;;;5009732;28;20668;-66
2022/11/26 10:06:28;;;;;;;34.15;12.38;;;6.80;99.90;;;;;;5011853;28;20061;-68
2022/11/26 10:09:12;;;;;;;33.63;12.15;;;6.90;99.90;;;;;;5017146;28;20075;-66
2022/11/26 10:11:51;;;;;;;30.55;11.10;;;6.90;99.90;;;;;;5030357;28;20104;-66
2022/11/26 10:14:37;;;;;;;35.95;10.88;;;6.90;99.90;;;;;;5017516;28;20040;-66
2022/11/26 10:17:27;;;;;;;34.00;11.82;;;7.00;99.90;;;;;;5029277;28;20386;-67
2022/11/26 10:20:18;;;;;;;31.25;12.10;;;7.00;99.90;;;;;;5030400;28;20045;-67
2022/11/26 10:23:04;;;;;;;35.72;11.68;;;7.00;99.90;;;;;;5030287;28;20442;-67
2022/11/26 10:25:38;;;;;;;29.23;10.00;;;7.00;99.90;;;;;;5030611;28;20048;-70
2022/11/26 10:28:18;;;;;;;38.47;10.27;;;7.10;99.90;;;;;;5031159;28;20417;-65
2022/11/26 10:30:45;;;;;;;27.65;10.10;;;7.10;99.90;;;;;;5030265;28;20458;-67
2022/11/26 10:33:19;;;;;;;33.53;12.07;;;7.30;99.90;;;;;;5031082;28;20033;-66
2022/11/26 10:35:48;;;;;;;31.42;11.52;;;7.60;99.90;;;;;;5030307;28;20021;-67
2022/11/26 10:38:14;;;;;;;27.48;11.27;;;7.80;99.90;;;;;;5030743;28;20502;-67
2022/11/26 10:40:40;;;;;;;37.22;11.27;;;8.00;99.90;;;;;;5029245;28;20030;-65
2022/11/26 10:43:08;;;;;;;37.40;10.60;;;7.90;99.90;;;;;;5030404;28;20029;-66
2022/11/26 10:45:53;;;;;;;27.17;10.50;;;7.80;99.90;;;;;;5029748;28;20047;-67
2022/11/26 10:48:26;;;;;;;34.28;11.30;;;7.60;99.90;;;;;;5030515;28;20034;-65
2022/11/26 10:51:24;;;;;;;31.77;10.68;;;7.70;99.90;;;;;;5029986;28;20959;-66
2022/11/26 10:53:56;;;;;;;27.80;9.32;;;7.70;99.90;;;;;;5030055;28;20485;-64
2022/11/26 10:56:35;;;;;;;25.95;9.65;;;7.70;99.90;;;;;;5030695;28;20068;-66
2022/11/26 10:59:04;;;;;;;35.05;11.50;;;7.80;99.90;;;;;;5030786;28;20037;-67
2022/11/26 11:01:38;;;;;;;32.88;11.88;;;8.00;99.90;;;;;;5030295;28;20524;-71
2022/11/26 11:04:23;;;;;;;30.20;11.70;;;8.10;99.90;;;;;;5030373;28;20092;-67
2022/11/26 11:06:49;;;;;;;25.55;10.80;;;8.10;99.90;;;;;;5029671;28;20865;-66
2022/11/26 11:09:24;;;;;;;22.90;9.13;;;8.20;99.90;;;;;;5030541;28;20029;-67
2022/11/26 11:12:10;;;;;;;24.63;8.65;;;8.20;99.90;;;;;;5028989;28;20742;-66
2022/11/26 11:14:36;;;;;;;21.73;8.30;;;8.00;99.90;;;;;;5021811;28;20045;-65
2022/11/26 11:17:03;;;;;;;21.20;7.70;;;7.90;99.90;;;;;;5029982;28;20107;-67
2022/11/26 11:19:29;;;;;;;24.92;9.00;;;7.80;99.90;;;;;;5030186;28;20099;-67
2022/11/26 11:21:55;;;;;;;28.67;9.85;;;7.70;99.90;;;;;;5029155;28;20026;-66
2022/11/26 11:24:26;;;;;;;21.08;8.52;;;7.80;99.90;;;;;;5029897;28;20033;-65
2022/11/26 11:26:54;;;;;;;25.85;6.97;;;8.00;99.90;;;;;;5028753;28;20120;-66
2022/11/26 11:29:32;;;;;;;19.10;6.85;;;7.90;99.90;;;;;;5030112;28;20040;-64
2022/11/26 11:32:01;;;;;;;14.73;6.30;;;8.30;99.90;;;;;;5029814;28;20509;-68
2022/11/26 11:34:29;;;;;;;17.80;6.63;;;8.70;99.90;;;;;;5029897;28;20441;-65
2022/11/26 11:37:01;;;;;;;16.25;6.68;;;8.80;99.90;;;;;;5029029;28;20025;-67
2022/11/26 11:39:34;;;;;;;17.77;6.63;;;9.10;99.90;;;;;;5029774;28;20063;-66
2022/11/26 11:42:03;;;;;;;22.50;6.45;;;9.40;99.90;;;;;;5029701;28;20037;-66
2022/11/26 11:44:45;;;;;;;14.35;6.60;;;9.50;99.90;;;;;;5029557;28;20035;-66
2022/11/26 11:47:31;;;;;;;17.45;6.22;;;9.60;99.90;;;;;;5029360;28;20056;-66
2022/11/26 11:50:18;;;;;;;16.42;5.00;;;9.40;99.90;;;;;;5028912;28;20026;-68
2022/11/26 11:53:02;;;;;;;17.73;6.50;;;9.10;99.90;;;;;;5028301;28;20057;-65
2022/11/26 11:55:55;;;;;;;14.32;6.13;;;9.10;99.90;;;;;;5029447;28;20036;-66
2022/11/26 11:58:26;;;;;;;15.52;6.00;;;9.20;99.90;;;;;;5029808;28;20033;-65
2022/11/26 12:01:19;;;;;;;18.80;5.35;;;9.30;99.90;;;;;;5027258;28;20033;-67
2022/11/26 12:04:18;;;;;;;16.80;5.40;;;9.30;99.90;;;;;;5028349;28;20029;-65
2022/11/26 12:07:27;;;;;;;17.45;5.18;;;9.10;99.90;;;;;;5028530;28;20469;-66
2022/11/26 12:10:49;;;;;;;19.02;5.72;;;9.20;99.90;;;;;;5028631;28;20654;-67
2022/11/26 12:13:17;;;;;;;20.80;5.93;;;9.00;99.90;;;;;;5006422;28;20061;-66
2022/11/26 12:16:04;;;;;;;16.60;6.15;;;8.80;99.90;;;;;;5006001;28;20471;-67
2022/11/26 12:18:46;;;;;;;17.48;5.00;;;8.70;99.90;;;;;;5023469;28;20034;-65
2022/11/26 12:21:13;;;;;;;15.98;5.30;;;8.60;99.90;;;;;;5029062;28;20072;-66
2022/11/26 12:24:08;;;;;;;14.85;5.32;;;8.50;99.90;;;;;;5027902;28;20059;-67
2022/11/26 12:26:39;;;;;;;14.20;5.15;;;8.60;99.90;;;;;;5020303;28;20076;-70
2022/11/26 12:29:08;;;;;;;20.10;5.53;;;8.70;99.90;;;;;;5028863;28;20485;-67
2022/11/26 12:31:49;;;;;;;16.77;5.93;;;8.80;99.90;;;;;;5028158;28;20470;-70
2022/11/26 12:34:51;;;;;;;13.63;4.05;;;9.10;99.90;;;;;;5029093;28;20033;-65
2022/11/26 12:37:23;;;;;;;14.70;4.40;;;9.20;99.90;;;;;;5027114;28;20128;-66
2022/11/26 12:39:57;;;;;;;11.55;4.82;;;8.90;99.90;;;;;;5027819;28;20125;-67
2022/11/26 12:42:32;;;;;;;13.75;4.13;;;8.70;99.90;;;;;;5028567;28;20167;-65
2022/11/26 12:45:15;;;;;;;15.45;4.32;;;8.70;99.90;;;;;;5027246;28;20237;-66
2022/11/26 12:47:46;;;;;;;12.68;4.03;;;8.60;99.90;;;;;;5027948;28;20042;-67
2022/11/26 12:50:40;;;;;;;13.95;4.50;;;8.60;99.90;;;;;;5028731;28;20037;-66
2022/11/26 12:53:16;;;;;;;14.35;4.50;;;8.50;99.90;;;;;;5028682;28;20103;-66
2022/11/26 12:55:53;;;;;;;16.30;4.55;;;8.60;99.90;;;;;;5027912;28;20374;-65
2022/11/26 12:58:23;;;;;;;12.07;4.25;;;8.60;99.90;;;;;;5028782;28;20104;-68